Time;durP1;ratioP1;P1;durP2;ratioP2;P2;SDS_P1;SDS_P2;PMS_P1;PMS_P2;Temp;Humidity;BMP_temperature;BMP_pressure;BME280_temperature;BME280_humidity;BME280_pressure;Samples;Min_cycle;Max_cycle;Signal;HPM_P1;HPM_P2
2023/09/29 00:01:33;;;;;;;9.10;4.00;;;;;;;;;;5049950;28;20082;-77
2023/09/29 00:04:01;;;;;;;7.22;4.57;;;;;;;;;;5068267;28;20040;-79
2023/09/29 00:06:28;;;;;;;7.47;4.38;;;;;;;;;;5064901;28;20048;-78
2023/09/29 00:08:54;;;;;;;8.68;4.65;;;;;;;;;;5066757;28;20745;-78
2023/09/29 00:11:21;;;;;;;9.27;4.35;;;;;;;;;;5047921;28;20133;-78
2023/09/29 00:13:48;;;;;;;7.85;3.83;;;;;;;;;;5066680;28;20410;-78
2023/09/29 00:16:15;;;;;;;6.60;3.70;;;;;;;;;;5059816;28;20045;-78
2023/09/29 00:18:42;;;;;;;11.55;5.13;;;;;;;;;;5061667;28;20041;-78
2023/09/29 00:21:09;;;;;;;7.90;4.10;;;;;;;;;;5065692;28;20075;-79
2023/09/29 00:23:35;;;;;;;10.02;4.70;;;;;;;;;;5069083;28;21880;-78
2023/09/29 00:26:02;;;;;;;6.55;4.05;;;;;;;;;;5067882;28;20123;-78
2023/09/29 00:28:29;;;;;;;8.07;3.95;;;;;;;;;;5053206;28;20075;-79
2023/09/29 00:30:55;;;;;;;9.90;4.35;;;;;;;;;;5066728;28;20086;-79
2023/09/29 00:33:22;;;;;;;7.40;4.80;;;;;;;;;;5072057;28;20773;-78
2023/09/29 00:35:49;;;;;;;9.48;5.30;;;;;;;;;;5072581;28;20044;-79
2023/09/29 00:38:16;;;;;;;8.52;4.63;;;;;;;;;;5074054;28;20040;-79
2023/09/29 00:40:42;;;;;;;8.48;4.90;;;;;;;;;;5073567;28;20310;-78
2023/09/29 00:43:10;;;;;;;7.95;4.28;;;;;;;;;;5053026;28;20107;-78
2023/09/29 00:45:37;;;;;;;7.82;3.88;;;;;;;;;;5068753;28;20135;-77
2023/09/29 00:48:06;;;;;;;6.80;3.78;;;;;;;;;;5053975;28;20401;-79
2023/09/29 00:50:35;;;;;;;7.53;4.47;;;;;;;;;;5071603;28;20052;-79
2023/09/29 00:53:13;;;;;;;10.32;4.75;;;;;;;;;;5076563;28;20413;-80
2023/09/29 00:55:41;;;;;;;9.82;4.80;;;;;;;;;;5077337;28;20060;-78
2023/09/29 00:58:09;;;;;;;10.70;5.38;;;;;;;;;;5074539;28;20527;-78
2023/09/29 01:00:40;;;;;;;8.25;4.38;;;;;;;;;;5039162;28;20041;-78
2023/09/29 01:03:11;;;;;;;12.10;4.30;;;;;;;;;;5050986;28;20045;-78
2023/09/29 01:05:42;;;;;;;9.13;4.43;;;;;;;;;;5047574;28;20118;-78
2023/09/29 01:08:13;;;;;;;8.35;4.72;;;;;;;;;;5072405;28;20078;-78
2023/09/29 01:10:40;;;;;;;7.00;4.30;;;;;;;;;;5072290;28;20131;-78
2023/09/29 01:13:08;;;;;;;7.28;3.85;;;;;;;;;;5071383;28;20055;-79
2023/09/29 01:15:36;;;;;;;5.55;3.65;;;;;;;;;;5054048;28;20045;-78
2023/09/29 01:18:03;;;;;;;7.57;4.65;;;;;;;;;;5064546;28;20368;-78
2023/09/29 01:20:30;;;;;;;8.38;4.40;;;;;;;;;;5047406;28;20091;-77
2023/09/29 01:22:58;;;;;;;8.10;4.47;;;;;;;;;;5059711;28;20059;-77
2023/09/29 01:25:24;;;;;;;11.43;5.05;;;;;;;;;;5061773;28;20454;-78
2023/09/29 01:27:52;;;;;;;10.13;5.75;;;;;;;;;;5063339;28;20052;-78
2023/09/29 01:30:19;;;;;;;9.25;4.65;;;;;;;;;;5054886;28;21257;-78
2023/09/29 01:32:51;;;;;;;8.13;4.88;;;;;;;;;;5046075;28;20745;-79
2023/09/29 01:35:18;;;;;;;11.57;4.50;;;;;;;;;;5050662;28;20040;-79
2023/09/29 01:37:46;;;;;;;10.00;4.13;;;;;;;;;;5071118;28;20036;-79
2023/09/29 01:40:14;;;;;;;7.22;4.22;;;;;;;;;;5050944;28;20041;-79
2023/09/29 01:42:44;;;;;;;9.52;5.00;;;;;;;;;;5072490;28;20049;-78
2023/09/29 01:45:11;;;;;;;9.90;5.38;;;;;;;;;;5053171;28;20097;-78
2023/09/29 01:47:38;;;;;;;8.10;4.72;;;;;;;;;;5047482;28;20109;-78
2023/09/29 01:50:06;;;;;;;7.80;4.82;;;;;;;;;;5073315;28;20044;-79
2023/09/29 01:52:33;;;;;;;7.82;4.20;;;;;;;;;;5048955;28;20127;-78
2023/09/29 01:55:01;;;;;;;8.40;5.18;;;;;;;;;;5067620;28;20139;-77
2023/09/29 01:57:28;;;;;;;9.90;4.82;;;;;;;;;;5052064;28;20047;-78
2023/09/29 01:59:54;;;;;;;9.82;5.50;;;;;;;;;;5040506;28;20045;-79
2023/09/29 02:02:21;;;;;;;12.85;5.82;;;;;;;;;;5048337;28;20045;-78
2023/09/29 02:04:48;;;;;;;12.98;6.43;;;;;;;;;;5066236;28;20071;-77
2023/09/29 02:07:15;;;;;;;10.43;5.47;;;;;;;;;;5048581;28;20056;-77
2023/09/29 02:09:42;;;;;;;8.27;5.05;;;;;;;;;;5049415;28;20043;-78
2023/09/29 02:12:10;;;;;;;9.10;5.18;;;;;;;;;;5046212;28;20083;-79
2023/09/29 02:14:37;;;;;;;13.60;6.65;;;;;;;;;;5047150;28;20102;-78
2023/09/29 02:17:06;;;;;;;8.80;5.32;;;;;;;;;;5056135;28;20048;-78
2023/09/29 02:19:35;;;;;;;10.38;5.63;;;;;;;;;;5049634;28;20051;-78
2023/09/29 02:22:05;;;;;;;10.05;5.18;;;;;;;;;;5032959;28;20044;-78
2023/09/29 02:24:31;;;;;;;10.60;5.30;;;;;;;;;;5063580;28;20146;-78
2023/09/29 02:26:58;;;;;;;9.57;5.93;;;;;;;;;;5066468;28;20212;-79
2023/09/29 02:29:25;;;;;;;11.35;6.50;;;;;;;;;;5059810;28;20055;-78
2023/09/29 02:31:55;;;;;;;11.05;5.63;;;;;;;;;;5067530;28;20122;-78
2023/09/29 02:34:24;;;;;;;12.70;6.32;;;;;;;;;;5070267;28;20052;-79
2023/09/29 02:36:52;;;;;;;11.85;7.15;;;;;;;;;;5072833;28;20047;-79
2023/09/29 02:39:19;;;;;;;12.88;7.47;;;;;;;;;;5061789;28;20581;-78
2023/09/29 02:41:46;;;;;;;11.63;6.38;;;;;;;;;;5067631;28;20048;-79
2023/09/29 02:44:12;;;;;;;11.10;5.78;;;;;;;;;;5046330;28;20049;-79
2023/09/29 02:46:40;;;;;;;10.05;5.43;;;;;;;;;;5070284;28;20128;-78
2023/09/29 02:49:07;;;;;;;9.00;5.28;;;;;;;;;;5072644;28;20091;-79
2023/09/29 02:51:35;;;;;;;8.77;5.00;;;;;;;;;;5072355;28;20048;-79
2023/09/29 02:54:06;;;;;;;9.75;5.05;;;;;;;;;;5053898;28;20056;-79
2023/09/29 02:56:33;;;;;;;11.15;5.80;;;;;;;;;;5053308;28;20051;-80
2023/09/29 02:59:06;;;;;;;11.85;5.57;;;;;;;;;;5071093;28;20119;-78
2023/09/29 03:01:34;;;;;;;10.55;5.78;;;;;;;;;;5067501;28;20802;-79
2023/09/29 03:04:01;;;;;;;11.88;5.55;;;;;;;;;;5066532;28;20570;-78
2023/09/29 03:06:29;;;;;;;9.50;5.30;;;;;;;;;;5067504;28;20052;-78
2023/09/29 03:08:58;;;;;;;13.57;6.03;;;;;;;;;;5060966;28;20032;-78
2023/09/29 03:11:25;;;;;;;9.70;5.43;;;;;;;;;;5067332;28;20471;-77
2023/09/29 03:13:55;;;;;;;11.48;5.50;;;;;;;;;;5036473;28;20387;-78
2023/09/29 03:16:24;;;;;;;12.85;6.45;;;;;;;;;;5069935;28;20099;-78
2023/09/29 03:18:50;;;;;;;10.43;5.72;;;;;;;;;;5046544;28;20040;-78
2023/09/29 03:21:19;;;;;;;14.40;7.13;;;;;;;;;;5050367;28;20118;-78
2023/09/29 03:23:47;;;;;;;13.60;6.40;;;;;;;;;;5067006;28;20056;-77
2023/09/29 03:26:26;;;;;;;15.05;7.05;;;;;;;;;;5068794;28;20048;-79
2023/09/29 03:28:54;;;;;;;11.50;6.28;;;;;;;;;;5057007;28;20032;-79
2023/09/29 03:31:24;;;;;;;12.18;5.78;;;;;;;;;;5063459;28;20135;-79
2023/09/29 03:33:52;;;;;;;11.65;6.10;;;;;;;;;;5056931;28;20049;-77
2023/09/29 03:36:22;;;;;;;10.88;6.03;;;;;;;;;;5062631;28;20053;-77
2023/09/29 03:38:49;;;;;;;10.70;5.30;;;;;;;;;;5063298;28;20037;-78
2023/09/29 03:41:16;;;;;;;10.35;5.45;;;;;;;;;;5044920;28;20072;-78
2023/09/29 03:43:42;;;;;;;12.20;6.22;;;;;;;;;;5062860;28;20040;-77
2023/09/29 03:46:19;;;;;;;10.38;5.82;;;;;;;;;;5065272;28;20542;-78
2023/09/29 03:48:47;;;;;;;11.57;5.95;;;;;;;;;;5063672;28;23033;-79
2023/09/29 03:51:21;;;;;;;11.27;5.50;;;;;;;;;;5070318;28;20049;-78
2023/09/29 03:53:57;;;;;;;11.75;5.28;;;;;;;;;;5056541;28;20060;-77
2023/09/29 03:56:24;;;;;;;11.50;4.75;;;;;;;;;;5048799;28;20099;-79
2023/09/29 03:58:51;;;;;;;11.93;5.57;;;;;;;;;;5070194;28;20048;-78
2023/09/29 04:01:17;;;;;;;10.32;5.97;;;;;;;;;;5059909;28;20048;-78
2023/09/29 04:03:45;;;;;;;11.13;6.00;;;;;;;;;;5053918;28;20044;-77
2023/09/29 04:06:11;;;;;;;9.52;5.40;;;;;;;;;;5039194;28;20148;-78
2023/09/29 04:08:38;;;;;;;11.27;5.20;;;;;;;;;;5044224;28;20265;-78
2023/09/29 04:11:05;;;;;;;8.48;4.78;;;;;;;;;;5051753;28;20057;-78
2023/09/29 04:13:33;;;;;;;9.82;5.85;;;;;;;;;;5057455;28;20045;-79
2023/09/29 04:16:04;;;;;;;9.20;5.30;;;;;;;;;;5062235;28;20064;-80
2023/09/29 04:18:31;;;;;;;10.90;5.18;;;;;;;;;;5054163;28;20422;-78
2023/09/29 04:21:01;;;;;;;11.80;6.63;;;;;;;;;;5057948;28;20033;-79
2023/09/29 04:23:28;;;;;;;11.23;5.65;;;;;;;;;;5063148;28;20051;-79
2023/09/29 04:25:57;;;;;;;12.13;5.40;;;;;;;;;;5045447;28;20048;-79
2023/09/29 04:28:24;;;;;;;12.45;5.93;;;;;;;;;;5048846;28;20427;-79
2023/09/29 04:30:51;;;;;;;12.02;6.07;;;;;;;;;;5042936;28;20041;-79
2023/09/29 04:33:18;;;;;;;10.45;5.35;;;;;;;;;;5057101;28;20045;-77
2023/09/29 04:35:45;;;;;;;8.65;4.93;;;;;;;;;;5050218;28;20123;-78
2023/09/29 04:38:12;;;;;;;10.77;6.18;;;;;;;;;;5058334;28;20064;-78
2023/09/29 04:40:39;;;;;;;11.27;5.95;;;;;;;;;;5061768;28;20061;-78
2023/09/29 04:43:05;;;;;;;9.43;5.13;;;;;;;;;;5061410;28;20045;-77
2023/09/29 04:45:33;;;;;;;13.13;5.30;;;;;;;;;;5068021;28;20110;-78
2023/09/29 04:48:01;;;;;;;11.63;5.35;;;;;;;;;;5068670;28;20098;-78
2023/09/29 04:50:29;;;;;;;11.07;6.13;;;;;;;;;;5048898;28;20580;-78
2023/09/29 04:52:56;;;;;;;9.10;5.47;;;;;;;;;;5040093;28;20123;-77
2023/09/29 04:55:23;;;;;;;14.63;6.80;;;;;;;;;;5064289;28;20076;-78
2023/09/29 04:57:52;;;;;;;12.45;6.40;;;;;;;;;;5067797;28;20157;-78
2023/09/29 05:00:19;;;;;;;11.02;5.50;;;;;;;;;;5068052;28;20054;-78
2023/09/29 05:02:46;;;;;;;11.70;6.60;;;;;;;;;;5067140;28;20401;-78
2023/09/29 05:05:13;;;;;;;10.45;5.65;;;;;;;;;;5067650;28;20071;-78
2023/09/29 05:07:43;;;;;;;11.32;5.50;;;;;;;;;;5044869;28;20051;-76
2023/09/29 05:10:11;;;;;;;9.48;5.50;;;;;;;;;;5070437;28;20044;-77
2023/09/29 05:12:37;;;;;;;13.20;6.60;;;;;;;;;;5052432;28;20044;-78
2023/09/29 05:15:05;;;;;;;11.45;6.60;;;;;;;;;;5061499;28;20107;-77
2023/09/29 05:17:31;;;;;;;15.90;7.60;;;;;;;;;;5062253;28;20071;-78
2023/09/29 05:20:16;;;;;;;10.98;5.57;;;;;;;;;;5047487;28;20044;-78
2023/09/29 05:22:43;;;;;;;9.05;5.00;;;;;;;;;;5065395;28;20072;-76
2023/09/29 05:25:09;;;;;;;11.57;5.43;;;;;;;;;;5066273;28;20124;-78
2023/09/29 05:27:36;;;;;;;8.15;5.22;;;;;;;;;;5080278;28;20044;-81
2023/09/29 05:30:03;;;;;;;13.30;6.53;;;;;;;;;;5088186;28;20166;-78
2023/09/29 05:32:30;;;;;;;10.95;6.07;;;;;;;;;;5062869;28;20080;-79
2023/09/29 05:34:58;;;;;;;11.07;5.50;;;;;;;;;;5046929;28;20133;-81
2023/09/29 05:37:25;;;;;;;7.70;5.18;;;;;;;;;;5067431;28;20070;-79
2023/09/29 05:39:52;;;;;;;9.23;4.80;;;;;;;;;;5045714;28;20517;-77
2023/09/29 05:42:21;;;;;;;8.95;5.28;;;;;;;;;;5064881;28;20044;-79
2023/09/29 05:44:59;;;;;;;9.05;5.43;;;;;;;;;;5059788;28;20084;-79
2023/09/29 05:47:26;;;;;;;8.60;5.03;;;;;;;;;;5058070;28;20041;-79
2023/09/29 05:49:53;;;;;;;11.77;6.55;;;;;;;;;;5065238;28;20052;-79
2023/09/29 05:52:39;;;;;;;9.57;5.60;;;;;;;;;;5061814;28;21373;-78
2023/09/29 05:55:06;;;;;;;12.45;5.57;;;;;;;;;;5043595;28;20036;-78
2023/09/29 05:57:36;;;;;;;10.85;5.63;;;;;;;;;;5051029;28;20045;-79
2023/09/29 06:00:04;;;;;;;9.77;5.18;;;;;;;;;;5065026;28;20048;-77
2023/09/29 06:02:31;;;;;;;11.00;5.30;;;;;;;;;;5073038;28;20105;-75
2023/09/29 06:04:59;;;;;;;14.65;6.85;;;;;;;;;;5046950;28;20033;-75
2023/09/29 06:07:26;;;;;;;9.70;5.78;;;;;;;;;;5059431;28;21503;-78
2023/09/29 06:09:52;;;;;;;10.80;6.03;;;;;;;;;;5047868;28;20132;-78
2023/09/29 06:12:19;;;;;;;12.57;5.78;;;;;;;;;;5047778;28;20040;-79
2023/09/29 06:14:45;;;;;;;10.32;6.15;;;;;;;;;;5059109;28;20403;-79
2023/09/29 06:17:12;;;;;;;10.15;6.20;;;;;;;;;;5067231;28;20048;-77
2023/09/29 06:19:39;;;;;;;9.90;6.07;;;;;;;;;;5066678;28;20032;-77
2023/09/29 06:22:05;;;;;;;11.15;6.32;;;;;;;;;;5067731;28;20045;-76
2023/09/29 06:24:32;;;;;;;13.75;6.07;;;;;;;;;;5067356;28;20048;-77
2023/09/29 06:26:59;;;;;;;9.82;5.88;;;;;;;;;;5062933;28;20347;-78
2023/09/29 06:29:26;;;;;;;12.52;5.70;;;;;;;;;;5064987;28;20045;-78
2023/09/29 06:31:54;;;;;;;13.55;6.47;;;;;;;;;;5057916;28;20049;-77
2023/09/29 06:34:20;;;;;;;12.32;5.97;;;;;;;;;;5049561;28;20052;-78
2023/09/29 06:36:47;;;;;;;9.75;5.63;;;;;;;;;;5052360;28;20059;-78
2023/09/29 06:39:14;;;;;;;9.27;5.00;;;;;;;;;;5057212;28;20045;-79
2023/09/29 06:41:41;;;;;;;8.88;5.68;;;;;;;;;;5055366;28;20040;-78
2023/09/29 06:44:07;;;;;;;13.15;5.75;;;;;;;;;;5048113;28;20057;-78
2023/09/29 06:46:34;;;;;;;8.27;4.70;;;;;;;;;;5072450;28;20247;-78
2023/09/29 06:49:03;;;;;;;9.48;4.93;;;;;;;;;;5064473;28;20590;-79
2023/09/29 06:51:30;;;;;;;8.20;4.78;;;;;;;;;;5052001;28;20045;-78
2023/09/29 06:53:57;;;;;;;7.63;4.68;;;;;;;;;;5042462;28;20045;-78
2023/09/29 06:56:24;;;;;;;8.27;4.53;;;;;;;;;;5066637;28;20047;-77
2023/09/29 06:58:50;;;;;;;8.15;4.10;;;;;;;;;;5063719;28;20099;-77
2023/09/29 07:01:17;;;;;;;8.02;4.28;;;;;;;;;;5060484;28;20094;-77
2023/09/29 07:03:45;;;;;;;8.23;4.15;;;;;;;;;;5050816;28;20053;-77
2023/09/29 07:06:12;;;;;;;7.50;4.22;;;;;;;;;;5044726;28;20847;-78
2023/09/29 07:08:39;;;;;;;9.13;4.13;;;;;;;;;;5042637;28;20130;-78
2023/09/29 07:11:06;;;;;;;6.80;3.63;;;;;;;;;;5045668;28;20041;-77
2023/09/29 07:13:33;;;;;;;7.18;3.30;;;;;;;;;;5055593;28;20426;-77
2023/09/29 07:15:59;;;;;;;8.00;3.80;;;;;;;;;;5045417;28;20127;-77
2023/09/29 07:18:26;;;;;;;6.45;3.55;;;;;;;;;;5037673;28;20040;-77
2023/09/29 07:20:53;;;;;;;6.07;3.55;;;;;;;;;;5053902;28;20053;-76
2023/09/29 07:23:21;;;;;;;7.45;4.03;;;;;;;;;;5035563;28;20060;-78
2023/09/29 07:25:50;;;;;;;7.95;3.22;;;;;;;;;;5043017;28;20051;-79
2023/09/29 07:28:22;;;;;;;6.47;3.20;;;;;;;;;;5048892;28;20068;-77
2023/09/29 07:30:52;;;;;;;6.18;3.15;;;;;;;;;;5042851;28;20137;-78
2023/09/29 07:33:19;;;;;;;7.05;3.28;;;;;;;;;;5030835;28;20387;-78
2023/09/29 07:35:46;;;;;;;6.15;2.97;;;;;;;;;;5033701;28;20071;-79
2023/09/29 07:38:13;;;;;;;7.57;3.00;;;;;;;;;;5044390;28;20077;-80
2023/09/29 07:40:39;;;;;;;6.18;3.33;;;;;;;;;;5044064;28;20049;-80
2023/09/29 07:43:06;;;;;;;4.75;2.70;;;;;;;;;;5064929;28;20641;-80
2023/09/29 07:45:33;;;;;;;8.65;2.92;;;;;;;;;;5087127;28;20058;-78
2023/09/29 07:47:59;;;;;;;5.20;2.70;;;;;;;;;;5079935;28;20047;-76
2023/09/29 07:50:26;;;;;;;3.92;2.30;;;;;;;;;;5064988;28;20495;-78
2023/09/29 07:52:53;;;;;;;6.45;3.13;;;;;;;;;;5046367;28;20118;-77
2023/09/29 07:55:20;;;;;;;4.68;2.63;;;;;;;;;;5042541;28;20562;-77
2023/09/29 07:57:46;;;;;;;4.30;2.20;;;;;;;;;;5025111;28;20032;-77
2023/09/29 08:00:15;;;;;;;2.70;1.67;;;;;;;;;;5045815;28;20102;-75
2023/09/29 08:02:43;;;;;;;5.35;1.98;;;;;;;;;;5064993;28;20037;-78
2023/09/29 08:05:13;;;;;;;3.97;2.10;;;;;;;;;;5059612;28;20139;-78
2023/09/29 08:07:40;;;;;;;3.40;1.92;;;;;;;;;;5061097;28;21338;-77
2023/09/29 08:10:07;;;;;;;3.45;1.80;;;;;;;;;;5063982;28;20110;-77
2023/09/29 08:12:36;;;;;;;3.40;1.65;;;;;;;;;;5062950;28;20125;-77
2023/09/29 08:15:05;;;;;;;2.97;1.83;;;;;;;;;;5046412;28;20091;-76
2023/09/29 08:17:32;;;;;;;3.45;1.90;;;;;;;;;;5064175;28;20177;-77
2023/09/29 08:19:59;;;;;;;3.90;1.73;;;;;;;;;;5062719;28;20410;-77
2023/09/29 08:22:26;;;;;;;5.35;1.90;;;;;;;;;;5063154;28;20041;-78
2023/09/29 08:25:10;;;;;;;5.35;2.35;;;;;;;;;;5060631;28;20044;-75
2023/09/29 08:27:37;;;;;;;2.03;1.50;;;;;;;;;;5062131;28;20065;-76
2023/09/29 08:30:04;;;;;;;3.00;1.63;;;;;;;;;;5063609;28;20036;-76
2023/09/29 08:32:31;;;;;;;3.20;1.80;;;;;;;;;;5062424;28;20048;-76
2023/09/29 08:34:58;;;;;;;6.65;1.95;;;;;;;;;;5062955;28;20101;-77
2023/09/29 08:37:28;;;;;;;3.70;1.88;;;;;;;;;;5064838;28;20072;-77
2023/09/29 08:39:54;;;;;;;5.55;1.77;;;;;;;;;;5064692;28;20335;-76
2023/09/29 08:42:37;;;;;;;3.83;1.80;;;;;;;;;;5064373;28;20092;-78
2023/09/29 08:45:09;;;;;;;3.53;1.75;;;;;;;;;;5065119;28;20062;-77
2023/09/29 08:47:37;;;;;;;6.80;2.55;;;;;;;;;;5069159;28;20036;-76
2023/09/29 08:50:06;;;;;;;4.60;1.98;;;;;;;;;;5067062;28;20836;-76
2023/09/29 08:52:33;;;;;;;5.18;1.80;;;;;;;;;;5068302;28;20052;-77
2023/09/29 08:55:00;;;;;;;4.32;1.67;;;;;;;;;;5067731;28;20113;-76
2023/09/29 08:57:27;;;;;;;4.55;1.90;;;;;;;;;;5064640;28;20049;-77
2023/09/29 08:59:54;;;;;;;4.30;2.00;;;;;;;;;;5066335;28;20054;-76
2023/09/29 09:02:21;;;;;;;5.07;2.03;;;;;;;;;;5066667;28;20044;-77
2023/09/29 09:04:48;;;;;;;4.40;1.77;;;;;;;;;;5054430;28;20083;-77
2023/09/29 09:07:19;;;;;;;3.55;1.77;;;;;;;;;;5068278;28;20577;-77
2023/09/29 09:09:53;;;;;;;2.70;1.85;;;;;;;;;;5061413;28;20607;-76
2023/09/29 09:12:35;;;;;;;3.45;1.58;;;;;;;;;;5051330;28;20532;-77
2023/09/29 09:15:03;;;;;;;3.05;1.45;;;;;;;;;;5048534;28;20037;-78
2023/09/29 09:17:32;;;;;;;2.28;1.60;;;;;;;;;;5049974;28;20140;-77
2023/09/29 09:19:59;;;;;;;3.08;1.50;;;;;;;;;;5047247;28;20045;-76
2023/09/29 09:22:27;;;;;;;3.65;1.70;;;;;;;;;;5051864;28;20045;-76
2023/09/29 09:25:12;;;;;;;2.35;1.65;;;;;;;;;;5047354;28;20621;-77
2023/09/29 09:27:40;;;;;;;2.65;1.38;;;;;;;;;;5042133;28;20048;-78
2023/09/29 09:30:20;;;;;;;3.20;1.60;;;;;;;;;;5041779;28;20072;-77
2023/09/29 09:32:47;;;;;;;1.83;1.20;;;;;;;;;;5040390;28;20066;-77
2023/09/29 09:35:25;;;;;;;4.28;2.10;;;;;;;;;;5042121;28;20139;-79
2023/09/29 09:37:52;;;;;;;2.67;1.67;;;;;;;;;;5030235;28;22343;-78
2023/09/29 09:40:19;;;;;;;4.03;1.65;;;;;;;;;;5047515;28;21779;-77
2023/09/29 09:42:49;;;;;;;2.85;1.55;;;;;;;;;;5049407;28;20634;-78
2023/09/29 09:45:16;;;;;;;3.85;2.00;;;;;;;;;;5046865;28;20037;-78
2023/09/29 09:47:45;;;;;;;2.80;1.67;;;;;;;;;;5049671;28;20048;-77
2023/09/29 09:50:14;;;;;;;2.92;1.80;;;;;;;;;;5042351;28;20465;-77
2023/09/29 09:52:44;;;;;;;3.55;1.80;;;;;;;;;;5041000;28;20043;-77
2023/09/29 09:55:11;;;;;;;2.78;1.70;;;;;;;;;;5044323;28;20044;-76
2023/09/29 09:57:41;;;;;;;2.10;1.40;;;;;;;;;;5031751;28;20063;-76
2023/09/29 10:00:12;;;;;;;1.92;1.50;;;;;;;;;;5056050;28;20041;-76
2023/09/29 10:02:43;;;;;;;1.63;1.30;;;;;;;;;;5065043;28;20396;-77
2023/09/29 10:05:31;;;;;;;2.50;1.58;;;;;;;;;;5050095;28;20033;-77
2023/09/29 10:08:04;;;;;;;2.30;1.40;;;;;;;;;;5058633;28;20060;-77
2023/09/29 10:10:34;;;;;;;2.45;1.55;;;;;;;;;;5051952;28;20040;-76
2023/09/29 10:13:01;;;;;;;3.33;1.70;;;;;;;;;;5050415;28;20513;-77
2023/09/29 10:15:29;;;;;;;3.88;1.77;;;;;;;;;;5045029;28;20506;-78
2023/09/29 10:17:57;;;;;;;3.85;1.40;;;;;;;;;;5049343;28;20095;-78
2023/09/29 10:20:26;;;;;;;3.97;1.60;;;;;;;;;;5050982;28;21525;-78
2023/09/29 10:23:08;;;;;;;3.13;1.70;;;;;;;;;;5048119;28;20962;-79
2023/09/29 10:25:36;;;;;;;3.70;1.48;;;;;;;;;;5060010;28;20048;-78
2023/09/29 10:28:06;;;;;;;2.03;1.50;;;;;;;;;;5044177;28;20052;-78
2023/09/29 10:30:33;;;;;;;3.60;1.40;;;;;;;;;;5040386;28;20041;-80
2023/09/29 10:33:07;;;;;;;2.78;1.55;;;;;;;;;;5046670;28;20049;-79
2023/09/29 10:35:34;;;;;;;4.20;1.80;;;;;;;;;;5042636;28;20060;-79
2023/09/29 10:38:12;;;;;;;5.15;1.30;;;;;;;;;;5043955;28;20067;-79
2023/09/29 10:40:38;;;;;;;3.35;1.45;;;;;;;;;;5040118;28;20049;-80
2023/09/29 10:43:05;;;;;;;2.22;1.27;;;;;;;;;;5026106;28;20596;-79
2023/09/29 10:45:40;;;;;;;3.40;1.60;;;;;;;;;;5059950;28;20048;-78
2023/09/29 10:48:07;;;;;;;2.40;1.45;;;;;;;;;;5046999;28;20052;-78
2023/09/29 10:50:41;;;;;;;4.05;1.70;;;;;;;;;;5035974;28;20037;-78
2023/09/29 10:53:08;;;;;;;2.22;1.23;;;;;;;;;;5058747;28;21406;-79
2023/09/29 10:55:40;;;;;;;5.45;1.60;;;;;;;;;;5057774;28;20044;-78
2023/09/29 10:58:07;;;;;;;2.85;1.73;;;;;;;;;;5042306;28;20055;-77
2023/09/29 11:00:47;;;;;;;2.58;1.40;;;;;;;;;;5043649;28;20068;-78
2023/09/29 11:03:21;;;;;;;2.22;1.20;;;;;;;;;;5059259;28;20131;-77
2023/09/29 11:05:48;;;;;;;1.83;1.33;;;;;;;;;;5063435;28;20048;-78
2023/09/29 11:08:20;;;;;;;2.00;1.15;;;;;;;;;;5063681;28;20075;-77
2023/09/29 11:10:55;;;;;;;2.05;1.40;;;;;;;;;;5063493;28;20037;-78
2023/09/29 11:13:22;;;;;;;;;;;;;;;;;;5064106;28;20079;-79
2023/09/29 11:15:53;;;;;;;2.00;1.33;;;;;;;;;;5064492;28;19928;-78
2023/09/29 11:18:33;;;;;;;1.77;1.20;;;;;;;;;;5066361;28;20044;-77
2023/09/29 11:21:09;;;;;;;2.38;1.10;;;;;;;;;;5062533;28;20414;-77
2023/09/29 11:23:44;;;;;;;1.90;1.13;;;;;;;;;;5045245;28;22399;-80
2023/09/29 11:26:12;;;;;;;3.05;1.27;;;;;;;;;;5041835;28;20045;-79
2023/09/29 11:28:56;;;;;;;2.33;1.40;;;;;;;;;;5041517;28;20389;-79
2023/09/29 11:31:23;;;;;;;2.17;1.20;;;;;;;;;;5043637;28;20076;-78
2023/09/29 11:33:49;;;;;;;3.35;1.55;;;;;;;;;;5025921;28;20535;-78
2023/09/29 11:36:21;;;;;;;3.00;1.30;;;;;;;;;;5040693;28;20429;-78
2023/09/29 11:38:49;;;;;;;2.05;1.10;;;;;;;;;;5038052;28;20053;-78
2023/09/29 11:41:17;;;;;;;3.20;1.10;;;;;;;;;;5044099;28;20051;-79
2023/09/29 11:43:45;;;;;;;1.33;0.93;;;;;;;;;;5036855;28;20075;-79
2023/09/29 11:46:14;;;;;;;1.42;1.02;;;;;;;;;;5035439;28;20061;-78
2023/09/29 11:48:42;;;;;;;2.65;1.10;;;;;;;;;;5030549;28;20067;-78
2023/09/29 11:51:10;;;;;;;3.08;1.20;;;;;;;;;;5030710;28;20044;-79
2023/09/29 11:53:38;;;;;;;2.00;1.20;;;;;;;;;;5058192;28;20051;-79
2023/09/29 11:56:05;;;;;;;2.80;1.40;;;;;;;;;;5033827;28;20091;-77
2023/09/29 11:58:32;;;;;;;2.50;1.30;;;;;;;;;;5040471;28;20144;-79
2023/09/29 12:01:00;;;;;;;2.67;1.48;;;;;;;;;;5043168;28;20407;-79
2023/09/29 12:03:27;;;;;;;2.42;1.27;;;;;;;;;;5044494;28;20069;-77
2023/09/29 12:05:56;;;;;;;2.05;1.33;;;;;;;;;;5056797;28;20052;-78
2023/09/29 12:08:23;;;;;;;2.95;1.40;;;;;;;;;;5044157;28;20144;-78
2023/09/29 12:10:49;;;;;;;3.05;1.63;;;;;;;;;;5043433;28;20064;-79
2023/09/29 12:13:16;;;;;;;2.88;1.38;;;;;;;;;;5045459;28;20189;-78
2023/09/29 12:15:43;;;;;;;3.13;1.40;;;;;;;;;;5050289;28;20044;-78
2023/09/29 12:18:10;;;;;;;2.55;1.42;;;;;;;;;;5043995;28;20071;-78
2023/09/29 12:20:38;;;;;;;2.42;1.35;;;;;;;;;;5043588;28;20098;-78
2023/09/29 12:23:08;;;;;;;2.20;1.10;;;;;;;;;;5065910;28;22116;-79
2023/09/29 12:25:38;;;;;;;2.22;1.45;;;;;;;;;;5066801;28;22279;-78
2023/09/29 12:28:05;;;;;;;2.45;1.25;;;;;;;;;;5066881;28;20037;-77
2023/09/29 12:30:32;;;;;;;2.63;1.25;;;;;;;;;;5067509;28;20111;-76
2023/09/29 12:32:59;;;;;;;2.92;1.48;;;;;;;;;;5032298;28;20067;-78
2023/09/29 12:35:26;;;;;;;2.83;1.25;;;;;;;;;;5067146;28;20045;-77
2023/09/29 12:37:53;;;;;;;1.92;1.20;;;;;;;;;;5066868;28;20155;-78
2023/09/29 12:40:20;;;;;;;2.30;1.25;;;;;;;;;;5066876;28;20062;-78
2023/09/29 12:42:50;;;;;;;2.65;1.58;;;;;;;;;;5066233;28;20533;-77
2023/09/29 12:45:20;;;;;;;2.45;1.30;;;;;;;;;;5067559;28;20173;-77
2023/09/29 12:47:50;;;;;;;2.22;1.30;;;;;;;;;;5064839;28;20067;-78
2023/09/29 12:50:19;;;;;;;3.13;1.40;;;;;;;;;;5060512;28;20076;-77
2023/09/29 12:52:45;;;;;;;2.05;1.40;;;;;;;;;;5058095;28;20048;-75
2023/09/29 12:55:14;;;;;;;2.20;1.20;;;;;;;;;;5050150;28;20048;-78
2023/09/29 12:57:43;;;;;;;2.78;1.20;;;;;;;;;;5048177;28;20064;-78
2023/09/29 13:00:19;;;;;;;2.00;1.33;;;;;;;;;;5044040;28;20338;-77
2023/09/29 13:02:48;;;;;;;1.98;1.13;;;;;;;;;;5048476;28;20495;-77
2023/09/29 13:05:15;;;;;;;2.38;1.20;;;;;;;;;;5048548;28;20055;-77
2023/09/29 13:07:42;;;;;;;2.15;1.30;;;;;;;;;;5064272;28;20101;-77
2023/09/29 13:10:09;;;;;;;3.88;1.13;;;;;;;;;;5067348;28;20041;-78
2023/09/29 13:12:36;;;;;;;1.50;1.10;;;;;;;;;;5065764;28;20772;-78
2023/09/29 13:15:05;;;;;;;2.50;1.30;;;;;;;;;;5049852;28;20037;-77
2023/09/29 13:17:32;;;;;;;3.88;1.10;;;;;;;;;;5067442;28;20044;-78
2023/09/29 13:19:59;;;;;;;2.33;1.20;;;;;;;;;;5048531;28;20047;-77
2023/09/29 13:22:26;;;;;;;1.73;1.10;;;;;;;;;;5065173;28;20513;-78
2023/09/29 13:24:53;;;;;;;2.08;1.30;;;;;;;;;;5048315;28;20064;-78
2023/09/29 13:27:20;;;;;;;1.63;1.17;;;;;;;;;;5066497;28;20075;-79
2023/09/29 13:29:50;;;;;;;1.63;1.10;;;;;;;;;;5065658;28;20662;-78
2023/09/29 13:32:17;;;;;;;1.77;1.35;;;;;;;;;;5065859;28;20044;-78
2023/09/29 13:34:44;;;;;;;2.38;1.17;;;;;;;;;;5067787;28;20075;-78
2023/09/29 13:37:15;;;;;;;1.60;1.15;;;;;;;;;;5061618;28;20364;-77
2023/09/29 13:39:43;;;;;;;1.63;1.05;;;;;;;;;;5066195;28;21424;-79
2023/09/29 13:42:09;;;;;;;4.03;1.58;;;;;;;;;;5066366;28;20405;-78
2023/09/29 13:44:36;;;;;;;1.73;1.02;;;;;;;;;;5066616;28;20044;-78
2023/09/29 13:47:03;;;;;;;2.47;1.13;;;;;;;;;;5065642;28;20179;-78
2023/09/29 13:49:31;;;;;;;2.88;1.08;;;;;;;;;;5039261;28;20060;-78
2023/09/29 13:51:57;;;;;;;1.50;1.08;;;;;;;;;;5046607;28;20434;-79
2023/09/29 13:54:24;;;;;;;2.58;1.20;;;;;;;;;;5062172;28;20135;-78
2023/09/29 13:56:51;;;;;;;1.92;1.20;;;;;;;;;;5045816;28;20413;-79
2023/09/29 13:59:18;;;;;;;2.33;1.13;;;;;;;;;;5066332;28;20128;-77
2023/09/29 14:01:44;;;;;;;1.70;1.20;;;;;;;;;;5046353;28;20056;-78
2023/09/29 14:04:11;;;;;;;1.58;1.08;;;;;;;;;;5064884;28;20146;-79
2023/09/29 14:06:38;;;;;;;1.92;1.20;;;;;;;;;;5065255;28;20060;-77
2023/09/29 14:09:05;;;;;;;2.15;1.10;;;;;;;;;;5063695;28;20067;-79
2023/09/29 14:11:43;;;;;;;1.67;1.10;;;;;;;;;;5066179;28;20049;-77
2023/09/29 14:14:10;;;;;;;2.35;1.10;;;;;;;;;;5066220;28;20086;-78
2023/09/29 14:16:37;;;;;;;2.97;1.10;;;;;;;;;;5066468;28;20067;-77
2023/09/29 14:19:04;;;;;;;1.67;1.00;;;;;;;;;;5074701;28;20123;-80
2023/09/29 14:21:30;;;;;;;1.85;1.00;;;;;;;;;;5078467;28;20086;-77
2023/09/29 14:23:59;;;;;;;2.45;0.90;;;;;;;;;;5064243;28;20067;-79
2023/09/29 14:26:27;;;;;;;2.15;1.10;;;;;;;;;;5065758;28;20036;-78
2023/09/29 14:28:55;;;;;;;2.28;1.10;;;;;;;;;;5065097;28;20040;-78
2023/09/29 14:31:22;;;;;;;1.45;0.90;;;;;;;;;;5059025;28;20048;-78
2023/09/29 14:33:49;;;;;;;1.83;1.15;;;;;;;;;;5061112;28;20459;-79
2023/09/29 14:36:16;;;;;;;1.85;1.17;;;;;;;;;;5064531;28;20055;-78
2023/09/29 14:38:42;;;;;;;3.35;1.00;;;;;;;;;;5046399;28;20044;-78
2023/09/29 14:41:09;;;;;;;1.98;1.15;;;;;;;;;;5064532;28;20045;-77
2023/09/29 14:43:36;;;;;;;3.47;1.30;;;;;;;;;;5063776;28;20071;-79
2023/09/29 14:46:09;;;;;;;2.80;1.00;;;;;;;;;;5065570;28;20040;-78
2023/09/29 14:48:36;;;;;;;4.70;1.17;;;;;;;;;;5064719;28;20107;-79